Time;durP1;ratioP1;P1;durP2;ratioP2;P2;SDS_P1;SDS_P2;PMS_P1;PMS_P2;Temp;Humidity;BMP_temperature;BMP_pressure;BME280_temperature;BME280_humidity;BME280_pressure;Samples;Min_cycle;Max_cycle;Signal;HPM_P1;HPM_P2
2021/08/09 00:01:51;;;;;;;26.48;14.48;;;;;;;19.57;100.00;99680.88;5089628;28;20122;-55
2021/08/09 00:04:17;;;;;;;27.35;15.05;;;;;;;19.56;100.00;99671.28;5089404;28;20454;-55
2021/08/09 00:06:43;;;;;;;29.20;14.45;;;;;;;19.56;100.00;99673.91;5089627;28;20097;-58
2021/08/09 00:09:09;;;;;;;24.70;16.00;;;;;;;19.56;100.00;99683.59;5089765;28;20419;-56
2021/08/09 00:11:35;;;;;;;28.92;15.73;;;;;;;19.54;100.00;99675.78;5071725;28;20040;-55
2021/08/09 00:14:01;;;;;;;24.45;13.90;;;;;;;19.54;100.00;99677.59;5089456;28;20055;-54
2021/08/09 00:16:27;;;;;;;23.20;15.00;;;;;;;19.53;100.00;99674.09;5085006;28;20093;-56
2021/08/09 00:18:52;;;;;;;26.90;16.13;;;;;;;19.51;100.00;99678.66;5089586;28;20031;-56
2021/08/09 00:21:20;;;;;;;26.25;15.48;;;;;;;19.52;100.00;99675.09;5089730;28;20032;-57
2021/08/09 00:23:47;;;;;;;30.38;16.35;;;;;;;19.50;100.00;99670.84;5088923;28;20043;-56
2021/08/09 00:26:13;;;;;;;32.67;15.60;;;;;;;19.38;100.00;99654.06;5089804;28;20032;-57
2021/08/09 00:28:39;;;;;;;35.25;16.65;;;;;;;19.45;100.00;99666.75;5068240;28;20121;-56
2021/08/09 00:31:07;;;;;;;27.80;15.95;;;;;;;19.46;100.00;99672.88;5074356;28;20134;-56
2021/08/09 00:33:35;;;;;;;33.90;16.10;;;;;;;19.43;100.00;99665.97;5088144;28;20036;-57
2021/08/09 00:36:01;;;;;;;31.85;16.90;;;;;;;19.42;100.00;99668.72;5089056;28;20145;-58
2021/08/09 00:38:28;;;;;;;33.40;17.35;;;;;;;19.40;100.00;99670.63;5092700;28;20075;-56
2021/08/09 00:40:54;;;;;;;24.80;16.25;;;;;;;19.38;100.00;99661.97;5092500;28;20472;-57
2021/08/09 00:43:22;;;;;;;27.27;15.95;;;;;;;19.38;100.00;99667.25;5091900;28;20046;-56
2021/08/09 00:45:49;;;;;;;27.07;17.93;;;;;;;19.38;100.00;99673.38;5091987;28;20555;-57
2021/08/09 00:48:15;;;;;;;29.60;17.10;;;;;;;19.36;100.00;99670.03;5090899;28;20071;-57
2021/08/09 00:50:42;;;;;;;34.65;16.70;;;;;;;19.34;100.00;99674.53;5068310;28;20036;-57
2021/08/09 00:53:08;;;;;;;26.80;17.00;;;;;;;19.32;100.00;99665.88;5073391;28;20554;-56
2021/08/09 00:55:38;;;;;;;30.00;17.70;;;;;;;19.31;100.00;99666.84;5071784;28;20049;-57
2021/08/09 00:58:06;;;;;;;32.30;16.58;;;;;;;19.29;100.00;99660.84;5084376;28;20121;-56
2021/08/09 01:00:33;;;;;;;34.30;18.05;;;;;;;19.29;100.00;99655.56;5075018;28;20138;-55
2021/08/09 01:02:58;;;;;;;37.30;19.08;;;;;;;19.25;100.00;99656.75;5058330;28;20138;-57
2021/08/09 01:05:38;;;;;;;36.42;19.42;;;;;;;19.12;100.00;99636.63;5091683;28;20518;-56
2021/08/09 01:08:16;;;;;;;36.75;20.08;;;;;;;19.25;100.00;99666.44;5091789;28;20047;-54
2021/08/09 01:10:54;;;;;;;35.17;20.00;;;;;;;19.23;100.00;99663.91;5085663;28;20132;-56
2021/08/09 01:14:00;;;;;;;32.95;19.60;;;;;;;19.22;100.00;99661.38;5076741;28;20040;-56
2021/08/09 01:16:35;;;;;;;40.45;21.50;;;;;;;19.00;100.00;99625.97;5052677;28;20143;-56
2021/08/09 01:19:21;;;;;;;36.92;22.75;;;;;;;19.21;100.00;99663.16;5091549;28;20040;-56
2021/08/09 01:21:47;;;;;;;37.40;21.33;;;;;;;19.19;100.00;99662.44;5074794;28;20044;-57
2021/08/09 01:24:24;;;;;;;40.25;22.30;;;;;;;19.07;100.00;99641.38;5092820;28;20503;-57
2021/08/09 01:27:02;;;;;;;47.42;22.73;;;;;;;19.17;100.00;99666.13;5073462;28;20044;-56
2021/08/09 01:29:37;;;;;;;53.00;27.75;;;;;;;19.17;100.00;99666.13;5071293;28;20044;-56
2021/08/09 01:32:05;;;;;;;48.28;25.50;;;;;;;19.14;100.00;99663.72;5088342;28;20196;-57
2021/08/09 01:34:31;;;;;;;53.85;27.95;;;;;;;19.08;100.00;99664.97;5074697;28;20494;-57
2021/08/09 01:36:59;;;;;;;54.22;30.02;;;;;;;19.08;100.00;99664.97;5074344;28;20248;-56
2021/08/09 01:39:29;;;;;;;59.47;31.67;;;;;;;19.04;100.00;99661.72;5070733;28;20529;-57
2021/08/09 01:41:56;;;;;;;61.00;29.27;;;;;;;19.04;100.00;99664.38;5073148;28;20405;-57
2021/08/09 01:44:23;;;;;;;57.38;30.45;;;;;;;19.03;100.00;99667.09;5069686;28;20056;-57
2021/08/09 01:46:50;;;;;;;64.65;33.55;;;;;;;19.03;100.00;99672.38;5074517;28;20039;-56
2021/08/09 01:49:18;;;;;;;60.05;32.97;;;;;;;19.01;100.00;99661.91;5086390;28;20048;-55
2021/08/09 01:51:44;;;;;;;72.60;36.90;;;;;;;18.86;100.00;99641.91;5074425;28;20043;-57
2021/08/09 01:54:11;;;;;;;77.65;41.90;;;;;;;18.98;100.00;99670.06;5090778;28;20127;-58
2021/08/09 01:56:40;;;;;;;88.07;41.97;;;;;;;18.99;100.00;99665.63;5090132;28;20036;-57
2021/08/09 01:59:06;;;;;;;77.35;40.22;;;;;;;18.98;100.00;99671.84;5090965;28;20056;-57
2021/08/09 02:01:34;;;;;;;74.72;40.40;;;;;;;18.99;100.00;99677.00;5090462;28;20065;-53
2021/08/09 02:04:00;;;;;;;76.53;40.45;;;;;;;18.99;100.00;99679.66;5090542;28;20126;-56
2021/08/09 02:06:25;;;;;;;78.97;39.42;;;;;;;19.01;100.00;99687.44;5090835;28;20571;-56
2021/08/09 02:08:51;;;;;;;73.38;37.88;;;;;;;18.91;100.00;99674.06;5089749;28;20064;-55
2021/08/09 02:11:31;;;;;;;76.20;39.83;;;;;;;19.03;100.00;99694.28;5073822;28;20412;-56
2021/08/09 02:14:03;;;;;;;68.72;41.03;;;;;;;19.04;100.00;99695.16;5070278;28;20043;-54
2021/08/09 02:16:41;;;;;;;80.82;41.63;;;;;;;19.04;100.00;99696.00;5082296;28;20423;-57
2021/08/09 02:19:26;;;;;;;70.00;38.35;;;;;;;19.03;100.00;99690.81;5056768;28;20388;-56
2021/08/09 02:22:10;;;;;;;73.97;35.40;;;;;;;19.03;100.00;99701.34;5069584;28;20044;-58
2021/08/09 02:25:14;;;;;;;67.57;38.65;;;;;;;19.05;100.00;99708.19;5081958;28;20046;-56
2021/08/09 02:27:44;;;;;;;77.30;38.88;;;;;;;19.07;100.00;99702.81;5073650;28;20516;-56
2021/08/09 02:30:12;;;;;;;71.20;37.63;;;;;;;19.05;100.00;99700.28;5090195;28;20050;-57
2021/08/09 02:32:39;;;;;;;62.15;36.22;;;;;;;19.10;100.00;99699.16;5056686;28;20099;-57
2021/08/09 02:35:06;;;;;;;61.75;35.78;;;;;;;19.12;100.00;99702.50;5089772;28;20534;-57
2021/08/09 02:37:34;;;;;;;76.60;36.80;;;;;;;19.12;100.00;99699.88;5072930;28;20515;-57
2021/08/09 02:40:01;;;;;;;71.90;36.53;;;;;;;19.14;100.00;99703.25;5089686;28;20040;-56
2021/08/09 02:42:27;;;;;;;68.32;36.70;;;;;;;19.00;100.00;99681.31;5090238;28;20058;-56
2021/08/09 02:44:53;;;;;;;65.78;35.83;;;;;;;19.13;100.00;99710.31;5056332;28;20044;-56
2021/08/09 02:47:20;;;;;;;65.82;35.63;;;;;;;18.98;100.00;99688.50;5068117;28;20515;-56
2021/08/09 02:49:48;;;;;;;52.10;33.00;;;;;;;19.16;100.00;99712.72;5068868;28;20093;-56
2021/08/09 02:52:17;;;;;;;56.97;32.72;;;;;;;19.17;100.00;99710.94;5085959;28;20047;-57
2021/08/09 02:54:47;;;;;;;52.03;30.58;;;;;;;19.17;100.00;99706.50;5072600;28;20066;-56
2021/08/09 02:57:16;;;;;;;55.45;33.08;;;;;;;19.19;100.00;99714.31;5072638;28;20044;-55
2021/08/09 02:59:43;;;;;;;58.65;31.95;;;;;;;19.17;100.00;99706.50;5068533;28;20057;-56
2021/08/09 03:02:11;;;;;;;58.22;32.67;;;;;;;19.22;100.00;99714.94;5085188;28;20044;-56
2021/08/09 03:04:37;;;;;;;53.70;31.80;;;;;;;19.23;100.00;99711.34;5073198;28;20036;-59
2021/08/09 03:07:05;;;;;;;56.33;32.30;;;;;;;19.26;100.00;99712.94;5089727;28;20028;-56
2021/08/09 03:09:36;;;;;;;57.22;32.58;;;;;;;19.30;100.00;99719.69;5072334;28;20040;-56
2021/08/09 03:12:04;;;;;;;53.13;30.17;;;;;;;19.34;100.00;99713.25;5069175;28;20040;-56
2021/08/09 03:14:31;;;;;;;50.97;29.60;;;;;;;19.39;100.00;99716.41;5053528;28;20114;-55
2021/08/09 03:17:00;;;;;;;53.67;29.23;;;;;;;19.42;100.00;99722.28;5071920;28;20047;-56
2021/08/09 03:19:26;;;;;;;52.72;28.67;;;;;;;19.47;100.00;99723.81;5086730;28;20435;-57
2021/08/09 03:21:54;;;;;;;50.92;28.60;;;;;;;19.52;100.00;99729.63;5088363;28;20051;-57
2021/08/09 03:24:21;;;;;;;53.03;28.92;;;;;;;19.55;100.00;99729.38;5088451;28;20048;-55
2021/08/09 03:26:47;;;;;;;49.88;28.38;;;;;;;19.59;100.00;99731.69;5088711;28;20050;-56
2021/08/09 03:29:13;;;;;;;52.95;29.10;;;;;;;19.53;100.00;99711.03;5088755;28;20036;-56
2021/08/09 03:31:39;;;;;;;50.30;29.20;;;;;;;19.69;100.00;99731.88;5089605;28;20040;-57
2021/08/09 03:34:06;;;;;;;54.85;28.77;;;;;;;19.74;100.00;99729.75;5088225;28;20431;-57
2021/08/09 03:36:32;;;;;;;57.20;28.52;;;;;;;19.70;100.00;99715.97;5068474;28;20240;-58
2021/08/09 03:38:59;;;;;;;46.97;27.73;;;;;;;19.84;100.00;99733.44;5088969;28;20095;-56
2021/08/09 03:41:25;;;;;;;48.25;28.45;;;;;;;19.90;100.00;99738.28;5088821;28;20157;-57
2021/08/09 03:43:51;;;;;;;52.58;28.40;;;;;;;19.85;100.00;99717.50;5088386;28;20047;-57
2021/08/09 03:46:17;;;;;;;51.88;28.02;;;;;;;20.04;100.00;99740.78;5087442;28;20043;-56
2021/08/09 03:48:43;;;;;;;47.95;27.13;;;;;;;20.10;100.00;99737.66;5084926;28;20041;-57
2021/08/09 03:51:09;;;;;;;55.58;30.73;;;;;;;20.17;100.00;99743.34;5068610;28;20044;-57
2021/08/09 03:53:35;;;;;;;52.38;29.02;;;;;;;20.11;100.00;99715.59;5087561;28;20040;-57
2021/08/09 03:56:01;;;;;;;54.40;26.42;;;;;;;20.30;100.00;99734.44;5088772;28;20044;-57
2021/08/09 03:58:27;;;;;;;46.45;26.13;;;;;;;20.37;100.00;99739.28;5089282;28;20715;-57
2021/08/09 04:00:53;;;;;;;51.60;27.85;;;;;;;20.44;100.00;99736.09;5087956;28;20545;-57
2021/08/09 04:03:18;;;;;;;53.60;28.55;;;;;;;20.51;100.00;99739.97;5071700;28;20127;-56
2021/08/09 04:05:44;;;;;;;49.65;26.15;;;;;;;20.57;100.00;99733.34;5088462;28;20454;-56
2021/08/09 04:08:10;;;;;;;52.45;28.08;;;;;;;20.65;100.00;99738.94;5089970;28;20470;-57
2021/08/09 04:10:39;;;;;;;49.20;28.35;;;;;;;20.71;100.00;99741.97;5077920;28;20052;-57
2021/08/09 04:13:05;;;;;;;56.65;30.80;;;;;;;20.78;100.00;99742.31;5075268;28;20469;-56
2021/08/09 04:15:31;;;;;;;56.60;33.15;;;;;;;20.86;100.00;99736.47;5078768;28;20048;-56
2021/08/09 04:18:01;;;;;;;68.20;37.30;;;;;;;20.86;100.00;99724.09;5069631;28;20105;-57
2021/08/09 04:20:27;;;;;;;59.60;33.92;;;;;;;21.03;100.00;99741.31;5087960;28;20040;-55
2021/08/09 04:22:52;;;;;;;57.72;32.38;;;;;;;21.10;100.00;99734.59;5088813;28;20040;-57
2021/08/09 04:25:19;;;;;;;67.07;34.65;;;;;;;21.06;100.00;99712.84;5087697;28;20070;-56
2021/08/09 04:27:44;;;;;;;64.22;34.88;;;;;;;21.24;100.00;99736.22;5088114;28;20036;-56
2021/08/09 04:30:11;;;;;;;70.13;39.28;;;;;;;21.33;100.00;99732.84;5088603;28;20052;-57
2021/08/09 04:32:42;;;;;;;76.63;45.97;;;;;;;21.41;100.00;99731.28;5071738;28;20051;-56
2021/08/09 04:35:12;;;;;;;72.40;44.28;;;;;;;21.49;100.00;99723.59;5088392;28;20055;-55
2021/08/09 04:37:40;;;;;;;79.60;46.13;;;;;;;21.43;100.00;99705.56;5087749;28;20523;-57
2021/08/09 04:40:07;;;;;;;75.13;47.55;;;;;;;21.65;100.00;99725.88;5088116;28;20502;-57
2021/08/09 04:42:37;;;;;;;80.78;53.97;;;;;;;21.73;100.00;99726.09;5089094;28;20089;-55
2021/08/09 04:45:03;;;;;;;80.82;50.92;;;;;;;21.80;100.00;99729.09;5071203;28;20044;-55
2021/08/09 04:47:29;;;;;;;71.07;43.35;;;;;;;21.80;100.00;99718.50;5099012;28;20534;-57
2021/08/09 04:49:55;;;;;;;68.30;44.40;;;;;;;21.83;100.00;99713.81;5086778;28;20040;-57
2021/08/09 04:52:21;;;;;;;67.20;43.42;;;;;;;22.04;100.00;99723.66;5087926;28;20097;-56
2021/08/09 04:54:48;;;;;;;67.82;44.40;;;;;;;22.13;99.76;99721.13;5088051;28;20055;-58
2021/08/09 04:57:15;;;;;;;57.30;37.42;;;;;;;22.22;98.98;99719.53;5088348;28;20082;-53
2021/08/09 04:59:41;;;;;;;59.65;33.92;;;;;;;22.30;98.20;99728.53;5088132;28;20063;-57
2021/08/09 05:02:07;;;;;;;51.53;32.97;;;;;;;22.39;96.92;99727.78;5087559;28;20032;-58
2021/08/09 05:04:33;;;;;;;51.65;29.75;;;;;;;22.48;95.82;99725.34;5087954;28;20036;-58
2021/08/09 05:07:02;;;;;;;53.30;30.65;;;;;;;22.60;95.07;99732.28;5087926;28;20043;-59
2021/08/09 05:09:28;;;;;;;46.28;28.75;;;;;;;22.69;94.23;99728.84;5087533;28;20044;-57
2021/08/09 05:11:54;;;;;;;41.10;23.80;;;;;;;22.78;93.46;99728.09;5071276;28;20430;-56
2021/08/09 05:14:22;;;;;;;43.20;25.60;;;;;;;22.88;92.50;99733.47;5087596;28;20040;-57
2021/08/09 05:16:48;;;;;;;34.42;19.17;;;;;;;22.98;91.74;99734.38;5079637;28;20138;-58
2021/08/09 05:19:14;;;;;;;27.50;20.50;;;;;;;23.05;90.94;99723.13;5089309;28;20142;-58
2021/08/09 05:21:40;;;;;;;35.03;21.73;;;;;;;23.12;90.62;99715.47;5087656;28;20154;-58
2021/08/09 05:24:05;;;;;;;32.50;19.90;;;;;;;23.19;90.30;99727.22;5090157;28;20048;-57
2021/08/09 05:26:31;;;;;;;31.58;18.25;;;;;;;23.28;89.64;99726.47;5090961;28;20051;-56
2021/08/09 05:28:58;;;;;;;25.98;16.02;;;;;;;23.38;88.62;99732.66;5091884;28;20071;-58
2021/08/09 05:31:25;;;;;;;28.15;15.82;;;;;;;23.51;87.78;99724.47;5092849;28;20040;-58
2021/08/09 05:33:51;;;;;;;30.05;15.30;;;;;;;23.63;86.63;99726.06;5057535;28;20090;-58
2021/08/09 05:36:17;;;;;;;23.38;14.75;;;;;;;23.52;85.89;99689.00;5092375;28;20051;-59
2021/08/09 05:38:52;;;;;;;31.98;17.70;;;;;;;23.86;85.07;99732.88;5092647;28;20055;-58
2021/08/09 05:41:20;;;;;;;23.05;13.85;;;;;;;24.00;83.78;99729.81;5091382;28;20043;-57
2021/08/09 05:43:49;;;;;;;;;;;;;;;24.08;83.14;99729.13;5078530;28;20044;-57
2021/08/09 05:46:15;;;;;;;23.05;13.10;;;;;;;24.21;81.93;99734.22;5096162;28;20007;-57
2021/08/09 05:48:43;;;;;;;20.77;13.73;;;;;;;24.23;80.78;99719.84;5091133;28;20419;-57
2021/08/09 05:51:09;;;;;;;26.75;14.98;;;;;;;24.44;79.57;99725.00;5088015;28;20040;-57
2021/08/09 05:53:35;;;;;;;24.40;17.13;;;;;;;24.57;78.50;99728.22;5090396;28;20048;-57
2021/08/09 05:56:01;;;;;;;31.65;19.27;;;;;;;24.71;77.84;99721.63;5090411;28;20042;-56
2021/08/09 05:58:36;;;;;;;23.17;15.57;;;;;;;24.83;76.90;99724.00;5090651;28;20048;-57
2021/08/09 06:01:02;;;;;;;23.83;14.13;;;;;;;24.92;76.52;99724.13;5091760;28;20164;-54
2021/08/09 06:03:32;;;;;;;31.80;18.25;;;;;;;25.00;75.97;99725.13;5090189;28;20040;-58
2021/08/09 06:06:01;;;;;;;21.80;14.63;;;;;;;25.11;74.63;99719.63;5089391;28;20149;-56
2021/08/09 06:08:34;;;;;;;22.35;16.67;;;;;;;25.20;73.72;99728.56;5090260;28;20040;-57
2021/08/09 06:11:00;;;;;;;26.15;16.25;;;;;;;25.30;72.47;99729.38;5089914;28;20484;-57
2021/08/09 06:13:25;;;;;;;22.13;15.15;;;;;;;25.44;72.48;99725.38;5085862;28;20123;-56
2021/08/09 06:15:54;;;;;;;24.02;17.10;;;;;;;25.48;71.28;99717.00;5088302;28;20071;-57
2021/08/09 06:18:23;;;;;;;27.23;15.30;;;;;;;25.75;70.69;99721.50;5090669;28;20050;-57
2021/08/09 06:20:49;;;;;;;23.92;14.65;;;;;;;25.97;69.98;99725.59;5090038;28;20048;-58
2021/08/09 06:23:15;;;;;;;21.52;15.15;;;;;;;26.19;69.35;99729.66;5077754;28;20085;-56
2021/08/09 06:25:43;;;;;;;23.10;14.18;;;;;;;26.30;68.50;99724.13;5069880;28;20068;-57
2021/08/09 06:28:09;;;;;;;26.70;15.98;;;;;;;26.51;67.37;99725.50;5070145;28;20058;-57
2021/08/09 06:30:37;;;;;;;27.23;15.27;;;;;;;27.06;65.76;99713.81;5052389;28;20037;-56
2021/08/09 06:33:03;;;;;;;21.83;14.35;;;;;;;27.92;62.58;99723.41;5086998;28;20047;-59
2021/08/09 06:35:30;;;;;;;24.02;14.23;;;;;;;28.94;59.55;99723.09;5087018;28;20473;-58
2021/08/09 06:37:57;;;;;;;25.10;14.30;;;;;;;29.89;56.20;99717.63;5082231;28;20047;-55
2021/08/09 06:40:23;;;;;;;20.98;14.07;;;;;;;29.91;55.62;99714.78;5089255;28;20419;-58
2021/08/09 06:42:50;;;;;;;30.38;19.70;;;;;;;29.53;56.03;99697.66;5089125;28;20102;-58
2021/08/09 06:45:23;;;;;;;24.83;15.77;;;;;;;29.34;56.35;99711.47;5089306;28;20040;-58
2021/08/09 06:47:49;;;;;;;25.73;17.33;;;;;;;29.30;56.43;99715.47;5071983;28;20048;-57
2021/08/09 06:50:16;;;;;;;25.45;16.40;;;;;;;29.25;56.31;99701.78;5089116;28;20068;-58
2021/08/09 06:52:42;;;;;;;20.90;16.25;;;;;;;29.71;54.26;99711.69;5088227;28;20047;-58
2021/08/09 06:55:08;;;;;;;18.83;14.73;;;;;;;31.26;50.51;99706.84;5088149;28;20047;-59
2021/08/09 06:57:36;;;;;;;25.17;16.88;;;;;;;32.84;47.00;99706.03;5089189;28;20541;-51
2021/08/09 07:00:03;;;;;;;20.20;14.95;;;;;;;33.94;44.25;99706.91;5088879;28;20044;-58
2021/08/09 07:02:30;;;;;;;25.02;16.42;;;;;;;34.63;42.55;99700.41;5088825;28;20040;-58
2021/08/09 07:04:56;;;;;;;29.08;20.77;;;;;;;34.29;42.83;99706.81;5086832;28;20028;-57
2021/08/09 07:07:23;;;;;;;23.70;15.00;;;;;;;35.04;40.82;99701.03;5087136;28;20040;-56
2021/08/09 07:09:49;;;;;;;19.77;13.63;;;;;;;35.93;38.88;99694.97;5071330;28;20471;-58
2021/08/09 07:12:15;;;;;;;21.35;15.65;;;;;;;36.94;37.46;99695.78;5088604;28;20080;-58
2021/08/09 07:14:41;;;;;;;18.35;14.75;;;;;;;37.82;35.63;99692.72;5062176;28;20445;-56
2021/08/09 07:17:08;;;;;;;20.20;12.73;;;;;;;38.40;34.44;99687.53;5087320;28;20144;-54
2021/08/09 07:19:35;;;;;;;21.67;14.32;;;;;;;38.91;33.20;99685.03;5084458;28;20039;-56
2021/08/09 07:22:05;;;;;;;15.13;11.82;;;;;;;38.34;33.50;99681.16;5060347;28;20040;-55
2021/08/09 07:24:35;;;;;;;18.42;12.57;;;;;;;37.93;34.39;99686.53;5052401;28;20131;-57
2021/08/09 07:27:01;;;;;;;18.55;14.50;;;;;;;38.91;33.19;99686.94;5090037;28;20040;-56
2021/08/09 07:29:29;;;;;;;23.55;17.45;;;;;;;39.90;31.44;99683.13;5088292;28;20054;-53
2021/08/09 07:31:55;;;;;;;21.80;14.63;;;;;;;40.68;30.60;99681.53;5071626;28;20039;-52
2021/08/09 07:34:21;;;;;;;18.65;13.13;;;;;;;41.22;28.84;99685.38;5089404;28;20507;-58
2021/08/09 07:36:47;;;;;;;19.05;12.43;;;;;;;41.75;28.12;99693.72;5089589;28;20044;-57
2021/08/09 07:39:14;;;;;;;19.77;15.68;;;;;;;42.19;27.71;99694.47;5087724;28;20032;-55
2021/08/09 07:41:40;;;;;;;16.23;12.23;;;;;;;42.72;27.15;99702.91;5067903;28;20097;-59
2021/08/09 07:44:06;;;;;;;15.05;13.27;;;;;;;43.16;25.77;99698.88;5088687;28;20035;-61
2021/08/09 07:46:32;;;;;;;15.77;13.35;;;;;;;43.37;26.01;99700.63;5088365;28;20119;-62
2021/08/09 07:48:59;;;;;;;22.45;13.57;;;;;;;43.68;25.13;99696.13;5087729;28;20058;-63
2021/08/09 07:51:27;;;;;;;17.13;14.35;;;;;;;43.75;24.61;99693.97;5079037;28;20101;-62
2021/08/09 07:53:54;;;;;;;17.98;14.18;;;;;;;44.01;24.09;99699.53;5098566;28;20039;-62
2021/08/09 07:56:21;;;;;;;20.60;14.57;;;;;;;42.12;26.78;99693.03;5087951;28;20130;-66
2021/08/09 07:58:47;;;;;;;14.90;12.50;;;;;;;40.18;29.02;99690.44;5088845;28;20503;-62
2021/08/09 08:01:13;;;;;;;21.70;15.40;;;;;;;38.98;30.30;99698.53;5088767;28;20507;-61
2021/08/09 08:03:40;;;;;;;20.17;13.95;;;;;;;39.22;30.43;99700.16;5088255;28;20059;-62
2021/08/09 08:06:06;;;;;;;25.52;14.68;;;;;;;40.01;29.11;99695.03;5088782;28;20044;-63
2021/08/09 08:08:32;;;;;;;20.15;14.90;;;;;;;40.85;27.60;99705.00;5088151;28;20043;-62
2021/08/09 08:10:59;;;;;;;22.67;15.73;;;;;;;41.64;27.14;99704.78;5070065;28;20050;-63
2021/08/09 08:13:27;;;;;;;18.83;15.87;;;;;;;42.40;25.55;99703.72;5087682;28;20204;-62
2021/08/09 08:15:53;;;;;;;17.60;15.70;;;;;;;42.63;25.50;99708.84;5087376;28;20047;-63
2021/08/09 08:18:19;;;;;;;23.10;17.60;;;;;;;42.59;25.53;99706.91;5086685;28;20039;-62
2021/08/09 08:20:48;;;;;;;16.70;14.93;;;;;;;42.83;25.04;99712.84;5087613;28;20032;-64
2021/08/09 08:23:14;;;;;;;23.23;15.25;;;;;;;43.24;24.74;99703.81;5088121;28;20092;-64
2021/08/09 08:25:40;;;;;;;16.23;12.93;;;;;;;43.66;24.29;99694.72;5084876;28;20127;-64
2021/08/09 08:28:06;;;;;;;17.05;13.15;;;;;;;43.81;24.43;99690.13;5102743;28;20173;-61
2021/08/09 08:30:32;;;;;;;22.85;15.20;;;;;;;44.25;23.96;99685.03;5088204;28;20040;-60
2021/08/09 08:33:00;;;;;;;20.45;14.02;;;;;;;44.56;23.04;99682.31;5087360;28;20055;-63
2021/08/09 08:35:26;;;;;;;;;;;;;;;44.93;22.95;99688.34;5088375;28;20415;-66
2021/08/09 08:37:53;;;;;;;22.52;16.23;;;;;;;45.22;22.30;99693.25;5087343;28;19916;-64
2021/08/09 08:40:19;;;;;;;20.77;15.52;;;;;;;45.33;21.71;99695.66;5088227;28;20052;-61
2021/08/09 08:42:47;;;;;;;16.05;14.45;;;;;;;45.44;21.66;99701.97;5088393;28;20067;-62
2021/08/09 08:45:17;;;;;;;22.55;15.25;;;;;;;45.60;21.78;99697.22;5088358;28;20127;-66
2021/08/09 08:47:45;;;;;;;16.77;13.63;;;;;;;45.84;20.99;99699.06;5090021;28;20507;-65
2021/08/09 08:50:11;;;;;;;;;;;;;;;46.06;21.18;99701.41;5092124;28;20180;-64
2021/08/09 08:52:42;;;;;;;16.33;14.00;;;;;;;46.15;21.03;99701.63;5088626;28;19923;-64
2021/08/09 08:55:10;;;;;;;18.08;14.18;;;;;;;46.22;20.62;99691.94;5071958;28;20100;-61
2021/08/09 08:57:36;;;;;;;21.42;14.48;;;;;;;46.40;19.96;99693.19;5087099;28;20238;-63
2021/08/09 09:00:02;;;;;;;21.33;14.63;;;;;;;46.64;19.74;99698.81;5092857;28;20047;-62
2021/08/09 09:02:37;;;;;;;15.20;13.57;;;;;;;46.83;19.66;99674.94;5106687;28;20035;-64
2021/08/09 09:05:14;;;;;;;14.40;12.98;;;;;;;46.71;20.15;99685.50;5091004;28;20067;-62
2021/08/09 09:07:45;;;;;;;15.75;13.70;;;;;;;46.81;20.32;99665.31;5088481;28;20582;-64
2021/08/09 09:10:24;;;;;;;17.75;14.27;;;;;;;46.54;19.89;99677.69;5068797;28;20448;-60
2021/08/09 09:13:19;;;;;;;15.23;13.10;;;;;;;46.62;19.64;99671.56;5091924;28;20060;-62
2021/08/09 09:16:03;;;;;;;21.52;13.98;;;;;;;46.38;19.98;99671.47;5072686;28;20473;-61
2021/08/09 09:19:01;;;;;;;19.58;14.00;;;;;;;46.56;19.91;99671.91;5072034;28;20044;-60
2021/08/09 09:21:28;;;;;;;17.90;14.15;;;;;;;47.01;19.15;99673.38;5037727;28;20477;-64
2021/08/09 09:23:55;;;;;;;20.30;14.13;;;;;;;47.21;19.25;99670.41;5091995;28;20503;-61
2021/08/09 09:26:25;;;;;;;23.98;17.77;;;;;;;47.71;19.22;99679.19;5095671;28;20564;-58
2021/08/09 09:28:52;;;;;;;22.30;16.05;;;;;;;48.12;18.40;99679.41;5093850;28;20044;-57
2021/08/09 09:31:28;;;;;;;23.20;13.57;;;;;;;48.17;18.04;99674.66;5090429;28;20063;-59
2021/08/09 09:33:54;;;;;;;18.40;13.35;;;;;;;48.03;18.41;99675.72;5084358;28;20039;-59
2021/08/09 09:36:21;;;;;;;14.32;12.80;;;;;;;48.04;18.41;99672.66;5092778;28;20563;-59
2021/08/09 09:38:49;;;;;;;;;;;;;;;48.28;18.76;99678.06;5091813;28;20044;-59
2021/08/09 09:41:15;;;;;;;26.05;23.25;;;;;;;48.80;17.85;99677.75;5091077;28;19923;-58
2021/08/09 09:43:42;;;;;;;24.30;14.57;;;;;;;49.13;17.76;99659.19;5091787;28;20048;-59
2021/08/09 09:46:20;;;;;;;15.93;12.70;;;;;;;48.92;17.26;99668.97;5087750;28;20423;-60
2021/08/09 09:48:46;;;;;;;14.77;12.98;;;;;;;48.95;17.46;99659.22;5091512;28;20139;-60
2021/08/09 09:51:17;;;;;;;13.90;11.73;;;;;;;48.53;17.63;99661.09;5092015;28;20177;-59
2021/08/09 09:53:45;;;;;;;19.77;17.73;;;;;;;48.20;18.28;99649.22;5090891;28;20562;-62
2021/08/09 09:56:11;;;;;;;19.90;13.75;;;;;;;47.03;19.29;99658.22;5074048;28;20426;-56
2021/08/09 09:58:38;;;;;;;13.90;11.52;;;;;;;45.41;20.73;99625.59;5091913;28;20642;-58
2021/08/09 10:01:05;;;;;;;;;;;;;;;45.55;20.85;99643.13;5091044;28;20055;-55
2021/08/09 10:03:35;;;;;;;19.15;13.02;;;;;;;46.09;19.84;99643.09;5090063;28;19923;-52
2021/08/09 10:06:02;;;;;;;15.45;12.60;;;;;;;46.13;20.05;99643.31;5091514;28;20036;-54
2021/08/09 10:08:41;;;;;;;18.42;12.60;;;;;;;46.76;19.35;99647.75;5089864;28;20101;-54
2021/08/09 10:11:08;;;;;;;28.48;25.30;;;;;;;47.31;19.27;99650.22;5091255;28;20040;-55
2021/08/09 10:13:36;;;;;;;33.58;25.98;;;;;;;47.75;18.75;99645.22;5090309;28;20044;-56
2021/08/09 10:16:07;;;;;;;20.40;15.65;;;;;;;48.09;18.37;99647.75;5087076;28;20051;-53
2021/08/09 10:18:35;;;;;;;20.65;15.90;;;;;;;48.25;18.38;99656.59;5074156;28;20123;-57
2021/08/09 10:21:05;;;;;;;13.95;12.48;;;;;;;47.76;17.91;99637.75;5087803;28;20040;-53
2021/08/09 10:23:37;;;;;;;15.80;11.80;;;;;;;47.53;18.36;99650.44;5089566;28;20056;-53
2021/08/09 10:26:04;;;;;;;15.05;12.35;;;;;;;47.79;18.07;99646.25;5090148;28;20039;-54
2021/08/09 10:28:52;;;;;;;18.90;12.18;;;;;;;47.84;18.01;99643.41;5090272;28;20193;-52
2021/08/09 10:31:25;;;;;;;13.85;11.63;;;;;;;47.74;17.73;99642.78;5091518;28;20427;-51
2021/08/09 10:33:52;;;;;;;17.80;12.32;;;;;;;47.70;17.87;99638.94;5071899;28;20036;-54
2021/08/09 10:36:21;;;;;;;21.05;12.82;;;;;;;47.74;18.08;99643.56;5076912;28;20096;-54
2021/08/09 10:38:49;;;;;;;15.88;11.55;;;;;;;47.76;18.22;99633.06;5070211;28;20076;-52
2021/08/09 10:41:15;;;;;;;15.20;11.35;;;;;;;47.47;18.40;99641.47;5071310;28;20047;-55
2021/08/09 10:44:06;;;;;;;15.85;12.75;;;;;;;47.60;18.42;99632.44;5071336;28;20423;-55
2021/08/09 10:46:44;;;;;;;18.35;12.38;;;;;;;47.98;18.00;99640.72;5071251;28;20033;-53
2021/08/09 10:49:38;;;;;;;15.35;9.88;;;;;;;46.76;18.94;99641.41;5037296;28;20032;-52
2021/08/09 10:52:06;;;;;;;16.08;10.65;;;;;;;45.30;20.51;99640.47;5071037;28;20152;-56
2021/08/09 10:54:40;;;;;;;;;;;;;;;44.22;21.31;99638.97;5071394;28;20072;-53
2021/08/09 10:57:06;;;;;;;14.73;9.93;;;;;;;44.38;21.16;99633.53;5080494;28;19919;-53
2021/08/09 10:59:38;;;;;;;16.63;10.43;;;;;;;43.74;21.13;99639.44;5089648;28;20079;-53
2021/08/09 11:02:04;;;;;;;17.23;9.55;;;;;;;43.30;21.96;99628.03;5090856;28;20127;-51
2021/08/09 11:04:31;;;;;;;13.38;9.88;;;;;;;43.83;21.70;99619.44;5090724;28;20501;-51
2021/08/09 11:06:57;;;;;;;14.77;9.98;;;;;;;44.67;21.18;99621.72;5091197;28;20135;-53
2021/08/09 11:09:38;;;;;;;13.88;10.85;;;;;;;45.28;20.25;99634.47;5090571;28;20052;-54
2021/08/09 11:12:18;;;;;;;15.38;10.15;;;;;;;45.77;20.17;99627.06;5090798;28;20047;-55
2021/08/09 11:17:37;;;;;;;;;;;;;;;46.24;20.15;99618.22;5070444;28;20044;-53
2021/08/09 11:20:11;;;;;;;15.90;13.20;;;;;;;46.44;19.77;99628.22;5069695;28;19920;-52
2021/08/09 11:22:42;;;;;;;15.48;11.32;;;;;;;46.63;19.77;99625.63;5070317;28;20037;-52
2021/08/09 11:25:33;;;;;;;21.75;11.48;;;;;;;46.60;19.26;99624.25;5070469;28;20041;-52
2021/08/09 11:28:07;;;;;;;14.88;11.50;;;;;;;46.47;19.99;99618.59;5083338;28;20047;-52